Time;durP1;ratioP1;P1;durP2;ratioP2;P2;SDS_P1;SDS_P2;PMS_P1;PMS_P2;Temp;Humidity;BMP_temperature;BMP_pressure;BME280_temperature;BME280_humidity;BME280_pressure;Samples;Min_cycle;Max_cycle;Signal;HPM_P1;HPM_P2
2024/04/13 00:01:10;;;;;;;6.60;3.40;;;;;;;16.80;42.72;102373.06;5395578;26;20003;-83
2024/04/13 00:03:41;;;;;;;6.07;3.60;;;;;;;16.81;42.60;102374.81;5346443;26;20176;-83
2024/04/13 00:06:12;;;;;;;5.68;3.80;;;;;;;16.77;42.50;102373.31;5374898;26;20015;-83
2024/04/13 00:08:40;;;;;;;6.45;3.10;;;;;;;16.75;42.97;102366.16;5346631;26;20009;-83
2024/04/13 00:11:10;;;;;;;6.68;3.28;;;;;;;16.76;42.93;102373.44;5347131;26;20001;-83
2024/04/13 00:13:38;;;;;;;6.00;3.10;;;;;;;16.73;42.91;102360.78;5355441;26;20000;-82
2024/04/13 00:16:08;;;;;;;6.97;3.70;;;;;;;16.69;42.89;102359.31;5356646;26;20000;-84
2024/04/13 00:18:35;;;;;;;4.75;3.42;;;;;;;16.70;43.19;102358.31;5354843;26;20023;-84
2024/04/13 00:21:08;;;;;;;5.38;3.00;;;;;;;16.71;43.15;102353.66;5349987;26;20009;-83
2024/04/13 00:23:35;;;;;;;5.80;3.22;;;;;;;16.66;42.94;102353.19;5336992;26;20017;-83
2024/04/13 00:26:06;;;;;;;5.57;3.08;;;;;;;16.66;43.19;102356.81;5377334;26;20000;-84
2024/04/13 00:28:33;;;;;;;6.15;3.40;;;;;;;16.66;43.15;102353.19;5330065;26;20055;-84
2024/04/13 00:31:04;;;;;;;5.53;3.25;;;;;;;16.63;43.02;102355.22;5337474;26;20009;-82
2024/04/13 00:33:38;;;;;;;6.35;3.35;;;;;;;16.62;43.15;102352.59;5351653;26;20004;-83
2024/04/13 00:36:11;;;;;;;5.63;3.35;;;;;;;16.63;43.33;102354.34;5340610;26;20056;-83
2024/04/13 00:38:38;;;;;;;;;;;;;;;16.33;43.84;102349.66;5378755;26;20000;-81
2024/04/13 00:41:08;;;;;;;4.82;3.13;;;;;;;16.55;43.27;102343.09;5343623;26;19958;-84
2024/04/13 00:43:35;;;;;;;5.45;3.38;;;;;;;16.56;43.18;102350.38;5348371;26;20004;-82
2024/04/13 00:46:07;;;;;;;7.88;3.63;;;;;;;16.54;43.36;102346.88;5347434;26;20008;-83
2024/04/13 00:48:36;;;;;;;6.13;3.38;;;;;;;16.48;43.24;102345.53;5350490;26;20019;-82
2024/04/13 00:51:12;;;;;;;6.63;3.58;;;;;;;16.47;43.11;102343.78;5344423;26;20001;-82
2024/04/13 00:53:42;;;;;;;5.65;3.60;;;;;;;16.46;43.41;102347.56;5355584;26;20073;-83
2024/04/13 00:56:13;;;;;;;5.57;3.67;;;;;;;;;;5374380;26;20005;-82
2024/04/13 00:58:43;;;;;;;7.13;3.40;;;;;;;16.40;43.33;102350.88;5362323;26;20005;-82
2024/04/13 01:01:14;;;;;;;6.25;3.72;;;;;;;16.34;43.48;102342.22;5346112;26;20016;-84
2024/04/13 01:03:43;;;;;;;5.97;3.28;;;;;;;16.31;43.69;102340.63;5339964;26;20008;-82
2024/04/13 01:06:15;;;;;;;4.68;3.33;;;;;;;16.29;43.65;102339.00;5346642;26;20341;-82
2024/04/13 01:08:46;;;;;;;5.35;3.30;;;;;;;16.27;43.85;102336.38;5373640;26;20064;-83
2024/04/13 01:11:16;;;;;;;6.85;3.80;;;;;;;16.23;43.48;102334.91;5336485;26;20004;-82
2024/04/13 01:13:43;;;;;;;5.35;3.58;;;;;;;16.20;43.63;102340.69;5336037;26;20023;-81
2024/04/13 01:16:14;;;;;;;6.07;3.67;;;;;;;16.17;43.64;102332.69;5386615;26;20036;-82
2024/04/13 01:18:43;;;;;;;7.10;3.75;;;;;;;16.13;43.53;102325.66;5342541;26;20037;-83
2024/04/13 01:21:12;;;;;;;4.95;3.35;;;;;;;16.08;43.61;102331.59;5334011;26;20011;-82
2024/04/13 01:23:47;;;;;;;5.93;3.65;;;;;;;16.07;44.17;102323.44;5349819;26;20004;-83
2024/04/13 01:26:21;;;;;;;5.93;3.65;;;;;;;16.02;43.78;102328.47;5337063;26;20071;-84
2024/04/13 01:28:48;;;;;;;6.32;3.50;;;;;;;15.96;44.16;102329.91;5343312;26;20014;-83
2024/04/13 01:31:19;;;;;;;6.07;3.67;;;;;;;15.95;43.86;102322.63;5342874;26;20011;-83
2024/04/13 01:33:46;;;;;;;6.22;3.97;;;;;;;15.91;43.78;102332.19;5338265;26;20036;-82
2024/04/13 01:36:16;;;;;;;4.53;3.55;;;;;;;15.89;43.85;102336.97;5340413;26;20005;-82
2024/04/13 01:38:46;;;;;;;6.15;3.83;;;;;;;15.86;44.10;102337.22;5370981;26;20081;-84
2024/04/13 01:41:16;;;;;;;6.18;3.78;;;;;;;15.85;43.99;102347.38;5376351;26;20433;-81
2024/04/13 01:43:46;;;;;;;5.30;3.53;;;;;;;15.86;44.37;102345.50;5344075;26;20005;-82
2024/04/13 01:46:16;;;;;;;4.93;3.70;;;;;;;15.79;43.99;102334.13;5344041;26;20020;-83
2024/04/13 01:48:43;;;;;;;5.90;3.70;;;;;;;15.77;43.92;102322.31;5354123;26;20005;-83
2024/04/13 01:51:13;;;;;;;4.88;3.40;;;;;;;15.76;43.93;102333.50;5375118;26;20019;-84
2024/04/13 01:53:40;;;;;;;5.18;3.83;;;;;;;15.73;44.23;102326.38;5346074;26;20000;-83
2024/04/13 01:56:10;;;;;;;6.15;3.67;;;;;;;15.71;44.38;102322.88;5339227;26;20009;-82
2024/04/13 01:58:37;;;;;;;5.97;3.85;;;;;;;15.70;44.44;102325.75;5345985;26;20081;-83
2024/04/13 02:01:10;;;;;;;5.93;4.20;;;;;;;15.68;44.70;102328.63;5349308;26;20015;-84
2024/04/13 02:03:37;;;;;;;6.88;4.03;;;;;;;15.63;44.68;102328.19;5347530;26;20004;-82
2024/04/13 02:06:09;;;;;;;5.75;4.15;;;;;;;15.64;44.74;102326.28;5344694;26;20012;-82
2024/04/13 02:08:36;;;;;;;6.25;4.13;;;;;;;15.59;44.33;102318.38;5379353;26;20008;-82
2024/04/13 02:11:07;;;;;;;7.55;3.80;;;;;;;15.58;44.62;102324.06;5346365;26;20016;-81
2024/04/13 02:13:34;;;;;;;5.97;3.80;;;;;;;15.58;44.70;102324.06;5345470;26;20472;-83
2024/04/13 02:16:04;;;;;;;6.18;4.07;;;;;;;15.54;44.52;102309.66;5373398;26;20075;-83
2024/04/13 02:18:34;;;;;;;5.75;3.80;;;;;;;15.55;44.86;102311.41;5364195;26;20044;-83
2024/04/13 02:21:08;;;;;;;4.78;3.60;;;;;;;15.52;44.82;102306.13;5348306;26;20016;-83
2024/04/13 02:23:36;;;;;;;6.65;4.00;;;;;;;15.48;44.74;102301.91;5333480;26;20012;-83
2024/04/13 02:26:07;;;;;;;5.30;4.00;;;;;;;15.46;44.64;102307.53;5359332;26;20329;-83
2024/04/13 02:28:35;;;;;;;5.63;3.90;;;;;;;15.43;44.66;102304.16;5368709;26;20008;-83
2024/04/13 02:31:06;;;;;;;5.03;3.95;;;;;;;15.43;44.77;102306.91;5354351;26;20746;-82
2024/04/13 02:33:36;;;;;;;5.45;4.20;;;;;;;15.42;45.12;102297.75;5381521;26;20041;-84
2024/04/13 02:36:07;;;;;;;5.90;3.65;;;;;;;15.38;44.76;102293.53;5380252;26;20028;-82
2024/04/13 02:38:34;;;;;;;8.55;4.10;;;;;;;15.38;44.83;102299.03;5360934;26;20008;-83
2024/04/13 02:41:05;;;;;;;5.53;3.83;;;;;;;15.36;44.75;102298.28;5368075;26;20443;-83
2024/04/13 02:43:32;;;;;;;6.90;4.18;;;;;;;15.32;45.02;102299.53;5355007;26;20012;-82
2024/04/13 02:46:08;;;;;;;6.78;4.38;;;;;;;15.34;45.64;102293.94;5353544;26;20016;-82
2024/04/13 02:48:39;;;;;;;6.10;4.07;;;;;;;15.33;45.39;102292.16;5353093;26;20004;-84
2024/04/13 02:51:10;;;;;;;6.38;4.00;;;;;;;15.28;45.31;102287.00;5345123;26;20004;-83
2024/04/13 02:53:38;;;;;;;5.28;3.85;;;;;;;15.29;45.08;102287.88;5340741;26;20016;-83
2024/04/13 02:56:09;;;;;;;6.35;4.05;;;;;;;15.25;45.32;102292.81;5339349;26;20017;-83
2024/04/13 02:58:37;;;;;;;6.95;4.10;;;;;;;15.24;45.20;102288.28;5360301;26;20415;-83
2024/04/13 03:01:07;;;;;;;5.75;3.90;;;;;;;15.22;45.83;102284.78;5345775;26;20004;-83
2024/04/13 03:03:34;;;;;;;5.70;4.07;;;;;;;15.22;45.30;102289.41;5346922;26;20016;-82
2024/04/13 03:06:11;;;;;;;5.20;4.10;;;;;;;15.24;45.66;102285.53;5343488;26;20008;-83
2024/04/13 03:08:40;;;;;;;6.93;3.95;;;;;;;15.24;45.61;102282.78;5337184;26;20004;-83
2024/04/13 03:11:11;;;;;;;8.73;4.03;;;;;;;15.22;45.36;102290.28;5381283;26;20024;-82
2024/04/13 03:13:39;;;;;;;5.27;3.60;;;;;;;15.18;45.56;102277.75;5347318;26;20078;-83
2024/04/13 03:16:13;;;;;;;5.45;3.72;;;;;;;15.21;45.56;102283.03;5347772;26;20000;-82
2024/04/13 03:18:41;;;;;;;5.18;3.97;;;;;;;15.22;45.45;102283.91;5350796;26;20039;-83
2024/04/13 03:21:15;;;;;;;6.03;4.03;;;;;;;15.23;45.78;102292.06;5371786;26;20018;-83
2024/04/13 03:23:42;;;;;;;8.05;4.45;;;;;;;15.19;45.44;102279.50;5360195;26;20004;-84
2024/04/13 03:26:13;;;;;;;5.68;4.13;;;;;;;15.20;45.50;102281.25;5350542;26;20386;-83
2024/04/13 03:28:40;;;;;;;5.90;4.10;;;;;;;15.21;45.40;102284.91;5350411;26;20050;-83
2024/04/13 03:31:10;;;;;;;8.18;5.00;;;;;;;15.19;45.53;102286.91;5376458;26;20290;-83
2024/04/13 03:33:37;;;;;;;6.22;4.25;;;;;;;15.21;45.39;102295.94;5365433;26;20008;-84
2024/04/13 03:36:08;;;;;;;7.28;4.38;;;;;;;15.20;45.33;102292.31;5369897;26;20037;-84
2024/04/13 03:38:40;;;;;;;6.25;3.90;;;;;;;15.20;46.04;102288.66;5358459;26;20004;-84
2024/04/13 03:41:11;;;;;;;6.20;4.40;;;;;;;15.19;45.32;102282.28;5382873;26;20008;-83
2024/04/13 03:43:38;;;;;;;8.65;4.57;;;;;;;15.19;45.28;102284.16;5356525;26;20012;-82
2024/04/13 03:46:10;;;;;;;7.30;4.40;;;;;;;15.19;45.62;102279.50;5382819;26;20038;-83
2024/04/13 03:48:41;;;;;;;7.05;4.47;;;;;;;15.17;45.33;102275.16;5351250;26;20018;-82
2024/04/13 03:51:13;;;;;;;5.88;4.30;;;;;;;15.16;45.64;102282.56;5348880;26;20012;-84
2024/04/13 03:53:43;;;;;;;7.43;4.30;;;;;;;15.18;45.44;102285.19;5353994;26;20016;-83
2024/04/13 03:56:13;;;;;;;7.10;4.43;;;;;;;15.17;45.35;102286.19;5353104;26;20472;-83
2024/04/13 03:58:40;;;;;;;6.15;4.38;;;;;;;15.15;45.34;102283.56;5354799;26;20020;-83
2024/04/13 04:01:10;;;;;;;5.85;4.25;;;;;;;15.13;45.45;102286.44;5343594;26;20017;-83
2024/04/13 04:03:38;;;;;;;6.18;4.30;;;;;;;15.10;45.38;102289.44;5350823;26;20566;-83
2024/04/13 04:06:09;;;;;;;6.38;4.45;;;;;;;15.11;45.53;102288.44;5358476;26;21687;-83
2024/04/13 04:08:36;;;;;;;6.95;4.30;;;;;;;15.09;45.45;102289.59;5354987;26;20067;-83
2024/04/13 04:11:09;;;;;;;6.43;4.70;;;;;;;15.08;45.61;102280.44;5344649;26;20054;-83
2024/04/13 04:13:36;;;;;;;5.45;4.50;;;;;;;15.03;45.40;102285.44;5360378;26;20001;-83
2024/04/13 04:16:06;;;;;;;6.50;4.70;;;;;;;15.03;45.58;102285.44;5348535;26;20063;-84
2024/04/13 04:18:34;;;;;;;6.43;4.22;;;;;;;15.02;45.65;102282.81;5350993;26;20000;-83
2024/04/13 04:21:04;;;;;;;6.75;4.22;;;;;;;15.00;45.66;102287.59;5372417;26;20020;-83
2024/04/13 04:23:32;;;;;;;6.07;4.15;;;;;;;14.99;45.74;102286.72;5354880;26;20004;-83
2024/04/13 04:26:06;;;;;;;6.45;5.15;;;;;;;14.98;45.68;102290.47;5354894;26;20015;-83
2024/04/13 04:28:39;;;;;;;7.03;5.32;;;;;;;14.98;45.79;102293.25;5382319;26;20088;-83
2024/04/13 04:31:14;;;;;;;6.75;4.60;;;;;;;14.96;45.92;102303.50;5349923;26;20057;-83
2024/04/13 04:33:42;;;;;;;5.93;4.50;;;;;;;14.89;45.61;102295.88;5348996;26;20016;-82
2024/04/13 04:36:12;;;;;;;6.90;4.28;;;;;;;14.90;45.72;102305.91;5375278;26;20027;-83
2024/04/13 04:38:39;;;;;;;5.78;4.13;;;;;;;14.86;45.93;102298.88;5341110;26;20023;-83
2024/04/13 04:41:09;;;;;;;6.78;4.22;;;;;;;14.86;45.58;102302.53;5338499;26;20082;-83
2024/04/13 04:43:39;;;;;;;5.72;4.32;;;;;;;14.86;45.93;102301.63;5336884;26;20060;-83
2024/04/13 04:46:10;;;;;;;6.72;4.03;;;;;;;14.85;45.70;102305.44;5356404;26;20020;-83
2024/04/13 04:48:37;;;;;;;6.35;4.35;;;;;;;14.83;46.20;102307.44;5343603;26;20421;-82
2024/04/13 04:51:07;;;;;;;6.80;4.30;;;;;;;14.82;45.82;102309.31;5377667;26;20011;-82
2024/04/13 04:53:35;;;;;;;6.53;4.38;;;;;;;14.82;45.89;102309.31;5342269;26;20008;-83
2024/04/13 04:56:06;;;;;;;6.47;4.50;;;;;;;14.82;46.20;102303.78;5342545;26;20051;-82
2024/04/13 04:58:33;;;;;;;6.22;4.45;;;;;;;14.81;45.94;102303.91;5355303;26;20020;-83
2024/04/13 05:01:06;;;;;;;6.30;4.30;;;;;;;14.82;46.07;102297.41;5363703;26;20019;-81
2024/04/13 05:03:34;;;;;;;7.30;4.70;;;;;;;14.78;45.89;102302.28;5388562;26;20012;-83
2024/04/13 05:06:05;;;;;;;5.97;3.95;;;;;;;14.80;46.04;102293.88;5347386;26;20016;-83
2024/04/13 05:08:32;;;;;;;6.68;4.38;;;;;;;14.77;46.37;102293.13;5381632;26;20357;-83
2024/04/13 05:11:02;;;;;;;7.05;4.30;;;;;;;14.77;46.31;102298.66;5334028;26;20005;-83
2024/04/13 05:13:29;;;;;;;6.88;4.50;;;;;;;14.77;46.23;102295.00;5350925;26;20467;-82
2024/04/13 05:16:01;;;;;;;7.63;4.63;;;;;;;14.75;46.06;102295.16;5322762;26;20023;-82
2024/04/13 05:18:31;;;;;;;8.13;4.55;;;;;;;14.77;46.17;102295.00;5340128;26;20053;-82
2024/04/13 05:21:01;;;;;;;6.35;4.80;;;;;;;14.74;45.92;102300.78;5345304;26;20001;-83
2024/04/13 05:23:28;;;;;;;7.50;4.53;;;;;;;14.74;46.27;102298.03;5343173;26;20420;-82
2024/04/13 05:25:58;;;;;;;6.55;4.70;;;;;;;14.72;46.47;102295.41;5345161;26;20395;-82
2024/04/13 05:28:26;;;;;;;6.50;4.45;;;;;;;14.74;46.25;102296.16;5365475;26;20020;-82
2024/04/13 05:31:00;;;;;;;7.50;4.60;;;;;;;14.73;46.20;102288.91;5346831;26;20310;-82
2024/04/13 05:33:30;;;;;;;5.93;4.47;;;;;;;14.77;46.57;102290.38;5345339;26;20071;-83
2024/04/13 05:36:02;;;;;;;6.07;4.32;;;;;;;14.73;46.15;102299.91;5377394;26;20004;-83
2024/04/13 05:38:31;;;;;;;5.63;3.95;;;;;;;14.77;46.42;102300.53;5339795;26;20028;-83
2024/04/13 05:41:01;;;;;;;6.15;3.88;;;;;;;14.81;46.71;102304.78;5343687;26;20016;-82
2024/04/13 05:43:29;;;;;;;6.75;4.10;;;;;;;14.82;46.45;102298.28;5367475;26;20456;-83
2024/04/13 05:45:59;;;;;;;6.65;4.32;;;;;;;14.85;46.36;102294.41;5351195;26;20004;-83
2024/04/13 05:48:26;;;;;;;6.93;4.07;;;;;;;14.86;46.56;102298.88;5346058;26;20008;-82
2024/04/13 05:50:59;;;;;;;6.63;4.50;;;;;;;14.91;46.68;102300.28;5370871;26;20008;-83
2024/04/13 05:53:27;;;;;;;5.65;4.18;;;;;;;14.90;46.50;102294.88;5346505;26;20042;-83
2024/04/13 05:55:57;;;;;;;5.82;4.32;;;;;;;14.91;46.49;102299.41;5351578;26;20016;-83
2024/04/13 05:58:24;;;;;;;6.38;4.22;;;;;;;14.95;46.64;102298.13;5347312;26;20011;-82
2024/04/13 06:00:54;;;;;;;8.55;5.13;;;;;;;14.98;46.78;102295.13;5359703;26;20004;-83
2024/04/13 06:03:23;;;;;;;6.18;4.20;;;;;;;15.02;46.94;102296.59;5377950;26;20024;-82
2024/04/13 06:05:53;;;;;;;8.32;4.90;;;;;;;15.04;47.13;102295.47;5352404;26;20051;-83
2024/04/13 06:08:23;;;;;;;6.03;4.15;;;;;;;15.09;47.15;102292.34;5344396;26;20022;-82
2024/04/13 06:10:53;;;;;;;6.72;4.30;;;;;;;15.13;46.92;102294.72;5351752;26;20005;-82
2024/04/13 06:13:20;;;;;;;7.50;4.50;;;;;;;15.20;47.08;102296.94;5364279;26;20008;-82
2024/04/13 06:15:50;;;;;;;5.55;4.28;;;;;;;15.24;47.18;102293.81;5338688;26;20356;-82
2024/04/13 06:18:18;;;;;;;6.72;4.28;;;;;;;15.31;46.96;102294.16;5371453;26;20112;-82
2024/04/13 06:20:49;;;;;;;6.18;4.25;;;;;;;15.36;46.94;102295.53;5380779;26;20548;-83
2024/04/13 06:23:17;;;;;;;6.95;4.22;;;;;;;15.41;47.40;102296.03;5344573;26;20074;-82
2024/04/13 06:25:51;;;;;;;7.65;4.85;;;;;;;15.50;47.23;102289.72;5355924;26;20476;-83
2024/04/13 06:28:20;;;;;;;6.22;4.22;;;;;;;15.56;47.24;102273.66;5379266;26;20078;-82
2024/04/13 06:30:52;;;;;;;7.40;4.30;;;;;;;15.65;47.17;102283.88;5378404;26;20416;-83
2024/04/13 06:33:19;;;;;;;6.68;4.28;;;;;;;15.70;47.14;102276.06;5356231;26;20432;-81
2024/04/13 06:35:50;;;;;;;6.88;4.50;;;;;;;15.80;46.91;102277.91;5342996;26;20041;-82
2024/04/13 06:38:23;;;;;;;9.18;4.72;;;;;;;15.86;47.00;102280.13;5347284;26;20025;-83
2024/04/13 06:40:57;;;;;;;5.93;3.92;;;;;;;15.97;46.83;102276.41;5354835;26;20448;-82
2024/04/13 06:43:24;;;;;;;;;;;;;;;15.71;47.32;102273.19;5348054;26;20010;-82
2024/04/13 06:45:56;;;;;;;5.60;4.00;;;;;;;16.04;46.96;102279.50;5333406;26;19925;-82
2024/04/13 06:48:23;;;;;;;6.68;4.13;;;;;;;16.13;46.75;102267.66;5342858;26;20012;-82
2024/04/13 06:50:53;;;;;;;7.00;4.25;;;;;;;16.22;46.51;102272.38;5344703;26;20127;-82
2024/04/13 06:53:20;;;;;;;6.53;4.40;;;;;;;16.27;46.41;102275.59;5341491;26;20003;-81
2024/04/13 06:55:50;;;;;;;6.38;4.40;;;;;;;16.34;46.55;102274.03;5374951;26;20016;-82
2024/04/13 06:58:23;;;;;;;7.05;4.40;;;;;;;;;;5348706;26;20017;-80
2024/04/13 07:00:57;;;;;;;6.95;4.20;;;;;;;16.48;45.97;102279.22;5352296;26;20028;-83
2024/04/13 07:03:25;;;;;;;6.97;4.47;;;;;;;16.49;46.19;102275.44;5371422;26;20460;-81
2024/04/13 07:06:00;;;;;;;8.73;4.60;;;;;;;16.58;45.97;102282.88;5353853;26;20325;-82
2024/04/13 07:08:27;;;;;;;7.05;4.18;;;;;;;16.62;46.21;102272.44;5368349;26;20532;-82
2024/04/13 07:10:58;;;;;;;7.00;4.65;;;;;;;16.66;46.00;102273.03;5346932;26;20008;-81
2024/04/13 07:13:28;;;;;;;7.22;4.43;;;;;;;16.74;45.92;102274.09;5352365;26;20077;-82
2024/04/13 07:15:58;;;;;;;7.22;4.65;;;;;;;16.77;46.00;102272.91;5349025;26;20000;-81
2024/04/13 07:18:25;;;;;;;5.95;4.28;;;;;;;16.82;45.81;102271.50;5356984;26;20018;-80
2024/04/13 07:20:55;;;;;;;6.10;4.05;;;;;;;16.87;45.89;102260.88;5354327;26;20328;-79
2024/04/13 07:23:22;;;;;;;6.53;4.35;;;;;;;16.95;45.86;102272.09;5384203;26;20008;-80
2024/04/13 07:25:59;;;;;;;6.13;4.38;;;;;;;17.06;45.43;102271.13;5339912;26;20019;-80
2024/04/13 07:28:30;;;;;;;6.40;4.13;;;;;;;17.14;45.99;102267.66;5347644;26;20403;-80
2024/04/13 07:31:00;;;;;;;6.05;4.18;;;;;;;17.19;45.73;102271.72;5353460;26;20005;-82
2024/04/13 07:33:27;;;;;;;7.40;4.18;;;;;;;17.26;45.81;102270.13;5350496;26;20016;-82
2024/04/13 07:35:57;;;;;;;7.40;4.40;;;;;;;17.35;45.88;102269.28;5372977;26;20315;-80
2024/04/13 07:38:25;;;;;;;5.88;4.32;;;;;;;17.45;45.29;102257.34;5352311;26;20486;-81
2024/04/13 07:40:55;;;;;;;7.32;4.53;;;;;;;17.53;45.17;102263.00;5349010;26;20004;-82
2024/04/13 07:43:23;;;;;;;6.20;4.13;;;;;;;17.60;45.15;102259.50;5349598;26;20012;-82
2024/04/13 07:45:56;;;;;;;6.32;3.88;;;;;;;17.70;44.98;102251.19;5389448;26;20016;-82
2024/04/13 07:48:23;;;;;;;6.45;4.32;;;;;;;17.72;44.75;102250.03;5381431;26;20826;-80
2024/04/13 07:50:52;;;;;;;5.95;3.90;;;;;;;17.82;44.61;102251.94;5345944;26;20016;-81
2024/04/13 07:53:19;;;;;;;6.78;3.97;;;;;;;17.88;44.54;102248.59;5347023;26;19999;-80
2024/04/13 07:55:50;;;;;;;7.45;3.95;;;;;;;17.95;44.56;102238.66;5345371;26;20019;-81
2024/04/13 07:58:17;;;;;;;6.13;3.67;;;;;;;18.02;44.10;102243.44;5379911;26;20011;-80
2024/04/13 08:00:49;;;;;;;6.18;3.58;;;;;;;18.10;44.06;102238.03;5341098;26;20004;-82
2024/04/13 08:03:19;;;;;;;5.00;3.60;;;;;;;18.18;44.02;102247.47;5365109;26;20000;-81
2024/04/13 08:05:50;;;;;;;5.05;3.58;;;;;;;18.22;43.96;102244.28;5372716;26;20008;-80
2024/04/13 08:08:17;;;;;;;6.70;4.00;;;;;;;18.28;44.31;102242.78;5383252;26;20008;-83
2024/04/13 08:10:47;;;;;;;6.13;3.83;;;;;;;18.37;43.85;102241.88;5346519;26;20040;-82
2024/04/13 08:13:15;;;;;;;6.70;3.88;;;;;;;18.44;44.16;102243.00;5353060;26;20006;-83
2024/04/13 08:15:44;;;;;;;5.13;3.30;;;;;;;18.50;44.10;102237.75;5347642;26;20306;-82
2024/04/13 08:18:12;;;;;;;5.78;4.07;;;;;;;18.57;43.97;102240.78;5349510;26;20004;-82
2024/04/13 08:20:46;;;;;;;6.95;3.75;;;;;;;18.66;43.34;102237.09;5384331;26;20004;-81
2024/04/13 08:23:14;;;;;;;5.80;3.63;;;;;;;18.71;43.52;102236.66;5350605;26;20541;-80
2024/04/13 08:25:44;;;;;;;6.97;3.60;;;;;;;18.79;43.13;102228.41;5347472;26;20445;-81
2024/04/13 08:28:12;;;;;;;6.55;3.83;;;;;;;18.84;43.48;102229.69;5345720;26;20004;-82
2024/04/13 08:30:43;;;;;;;8.07;4.30;;;;;;;18.92;43.19;102231.69;5392765;26;20004;-82
2024/04/13 08:33:11;;;;;;;4.80;3.47;;;;;;;18.97;43.17;102231.19;5352398;26;20016;-82
2024/04/13 08:35:44;;;;;;;6.28;4.05;;;;;;;19.07;42.98;102243.13;5353970;26;20004;-81
2024/04/13 08:38:11;;;;;;;5.07;3.60;;;;;;;19.10;42.97;102228.94;5350367;26;20402;-81
2024/04/13 08:40:48;;;;;;;5.13;3.28;;;;;;;19.20;43.06;102224.19;5372471;26;20508;-83
2024/04/13 08:43:17;;;;;;;5.47;3.75;;;;;;;19.25;42.79;102222.72;5383459;26;20000;-82
2024/04/13 08:45:47;;;;;;;5.20;3.13;;;;;;;19.31;42.70;102212.88;5351221;26;20004;-81
2024/04/13 08:48:15;;;;;;;6.07;3.78;;;;;;;19.38;42.81;102219.50;5347915;26;20003;-82
2024/04/13 08:50:49;;;;;;;6.80;3.63;;;;;;;19.47;42.11;102221.34;5381265;26;20016;-81
2024/04/13 08:53:17;;;;;;;6.43;3.63;;;;;;;19.51;42.34;102219.13;5342582;26;20004;-81
2024/04/13 08:55:48;;;;;;;5.32;3.55;;;;;;;19.55;42.38;102212.19;5376441;26;20483;-81
2024/04/13 08:58:18;;;;;;;5.63;3.55;;;;;;;19.62;42.40;102213.34;5347837;26;19999;-82
2024/04/13 09:00:54;;;;;;;5.47;3.42;;;;;;;19.69;41.89;102213.56;5359921;26;20015;-82
2024/04/13 09:03:24;;;;;;;5.28;3.30;;;;;;;19.72;42.21;102204.88;5384020;26;20440;-81
2024/04/13 09:05:57;;;;;;;4.93;3.55;;;;;;;19.78;41.87;102213.47;5361440;26;20023;-82
2024/04/13 09:08:25;;;;;;;;;;;;;;;19.50;42.65;102198.81;5390875;26;20101;-82
2024/04/13 09:10:58;;;;;;;6.03;3.05;;;;;;;19.81;42.34;102199.22;5351143;26;19925;-82
2024/04/13 09:13:25;;;;;;;5.55;3.50;;;;;;;19.89;42.38;102196.50;5396768;26;20001;-81
2024/04/13 09:15:55;;;;;;;5.38;3.42;;;;;;;19.94;42.28;102196.06;5350951;26;20437;-81
2024/04/13 09:18:22;;;;;;;4.55;3.35;;;;;;;20.00;41.89;102192.63;5353714;26;20278;-81
2024/04/13 09:20:52;;;;;;;5.55;3.40;;;;;;;20.04;41.90;102190.41;5357903;26;20000;-81
2024/04/13 09:23:25;;;;;;;4.90;3.22;;;;;;;20.13;41.59;102193.03;5350027;26;20004;-80
2024/04/13 09:26:03;;;;;;;6.97;3.40;;;;;;;20.18;41.57;102187.00;5368140;26;20115;-80
2024/04/13 09:28:39;;;;;;;4.90;3.00;;;;;;;20.24;41.62;102184.41;5345723;26;20005;-81
2024/04/13 09:31:12;;;;;;;6.05;2.90;;;;;;;20.28;42.16;102174.69;5373363;26;20088;-80
2024/04/13 09:33:40;;;;;;;4.38;3.00;;;;;;;20.32;42.26;102173.34;5365180;26;20000;-81
2024/04/13 09:36:11;;;;;;;4.97;3.13;;;;;;;20.43;41.87;102174.97;5384446;26;20226;-82
2024/04/13 09:38:45;;;;;;;4.40;2.78;;;;;;;20.53;40.61;102172.03;5345716;26;20009;-82
2024/04/13 09:41:14;;;;;;;4.22;2.50;;;;;;;20.57;41.42;102168.75;5382100;26;20016;-82
2024/04/13 09:43:45;;;;;;;4.93;3.10;;;;;;;20.68;40.92;102167.59;5347886;26;20064;-81
2024/04/13 09:46:15;;;;;;;4.57;2.47;;;;;;;20.73;41.29;102160.47;5388901;26;20016;-81
2024/04/13 09:48:44;;;;;;;4.70;2.55;;;;;;;20.81;41.31;102159.63;5351623;26;20080;-82
2024/04/13 09:51:15;;;;;;;4.72;2.75;;;;;;;20.88;40.93;102157.91;5386107;26;20055;-82
2024/04/13 09:53:48;;;;;;;4.37;2.63;;;;;;;20.98;40.60;102155.84;5352443;26;20298;-82
2024/04/13 09:56:18;;;;;;;3.92;2.20;;;;;;;21.05;40.86;102145.75;5372556;26;20000;-82
2024/04/13 09:58:45;;;;;;;4.22;2.47;;;;;;;21.14;40.66;102143.84;5381400;26;20007;-82
2024/04/13 10:01:14;;;;;;;3.40;2.28;;;;;;;21.22;40.59;102141.06;5365451;26;20008;-82
2024/04/13 10:03:42;;;;;;;4.40;2.40;;;;;;;21.30;40.60;102132.75;5363531;26;20135;-80
2024/04/13 10:06:15;;;;;;;4.15;2.08;;;;;;;21.40;40.36;102143.72;5353923;26;20020;-82
2024/04/13 10:08:47;;;;;;;5.95;2.35;;;;;;;21.47;39.90;102133.59;5356063;26;20015;-82
2024/04/13 10:11:19;;;;;;;3.15;2.08;;;;;;;21.54;39.70;102129.06;5356419;26;20008;-82
2024/04/13 10:13:49;;;;;;;3.50;2.20;;;;;;;21.60;39.53;102127.50;5376599;26;20001;-82
2024/04/13 10:16:20;;;;;;;3.60;2.20;;;;;;;21.68;39.15;102113.56;5383343;26;20003;-82
2024/04/13 10:18:48;;;;;;;4.60;2.20;;;;;;;21.76;39.43;102120.00;5350775;26;20008;-81
2024/04/13 10:21:17;;;;;;;4.07;2.25;;;;;;;21.83;39.17;102114.56;5380406;26;20036;-80
2024/04/13 10:23:47;;;;;;;3.78;2.05;;;;;;;21.92;38.48;102099.59;5356652;26;20012;-82
2024/04/13 10:26:27;;;;;;;3.85;2.10;;;;;;;21.99;37.94;102102.53;5344298;26;19999;-84
2024/04/13 10:28:57;;;;;;;4.93;2.17;;;;;;;22.04;38.10;102103.72;5348689;26;20356;-84
2024/04/13 10:31:29;;;;;;;4.90;2.20;;;;;;;22.11;38.56;102099.16;5377891;26;20530;-82
2024/04/13 10:33:57;;;;;;;4.25;2.00;;;;;;;22.13;38.46;102085.91;5381107;26;20008;-82
2024/04/13 10:36:30;;;;;;;5.00;2.28;;;;;;;22.25;37.66;102089.19;5388960;26;20028;-82
2024/04/13 10:39:01;;;;;;;4.10;1.80;;;;;;;22.32;37.66;102090.19;5357901;26;20001;-82
2024/04/13 10:41:33;;;;;;;4.83;2.00;;;;;;;22.36;37.85;102085.97;5361724;26;20005;-82
2024/04/13 10:44:03;;;;;;;3.88;1.70;;;;;;;22.42;37.92;102079.69;5359056;26;20327;-83
2024/04/13 10:46:31;;;;;;;4.40;1.92;;;;;;;22.48;37.45;102094.81;5373817;26;20000;-82
2024/04/13 10:49:02;;;;;;;4.63;2.05;;;;;;;22.54;37.58;102067.06;5359220;26;20010;-82
2024/04/13 10:51:30;;;;;;;4.05;2.13;;;;;;;22.59;37.37;102060.94;5360219;26;20016;-82
2024/04/13 10:54:00;;;;;;;4.13;2.00;;;;;;;22.65;37.17;102060.22;5354922;26;20495;-82
2024/04/13 10:56:31;;;;;;;3.35;1.90;;;;;;;22.74;36.38;102056.31;5368458;26;20080;-83
2024/04/13 10:59:00;;;;;;;3.85;2.20;;;;;;;22.75;36.79;102054.38;5366031;26;20480;-83
2024/04/13 11:01:27;;;;;;;2.90;1.42;;;;;;;22.80;36.71;102043.50;5375053;26;20016;-82
2024/04/13 11:04:05;;;;;;;3.22;1.98;;;;;;;22.87;35.42;102038.91;5359961;26;20004;-85
2024/04/13 11:06:32;;;;;;;4.60;1.80;;;;;;;22.89;36.54;102036.81;5363267;26;20008;-82
2024/04/13 11:09:02;;;;;;;5.30;2.15;;;;;;;22.96;36.03;102019.13;5362878;26;20008;-83
2024/04/13 11:11:32;;;;;;;3.30;1.77;;;;;;;23.01;36.08;102027.78;5334907;26;20001;-83
2024/04/13 11:14:02;;;;;;;4.07;2.17;;;;;;;23.03;35.75;102025.69;5356700;26;20008;-83
2024/04/13 11:16:29;;;;;;;5.32;2.25;;;;;;;23.09;36.23;102012.00;5350965;26;20009;-83
2024/04/13 11:18:59;;;;;;;5.70;2.20;;;;;;;23.12;36.19;102004.13;5382120;26;20069;-82
2024/04/13 11:21:30;;;;;;;5.03;2.10;;;;;;;23.17;35.79;102007.25;5368661;26;20013;-82
2024/04/13 11:23:58;;;;;;;3.80;1.92;;;;;;;23.24;35.85;102007.38;5380185;26;20027;-83
2024/04/13 11:26:31;;;;;;;4.25;1.95;;;;;;;23.27;35.76;102005.06;5341248;26;20016;-84
2024/04/13 11:29:01;;;;;;;4.35;2.40;;;;;;;23.34;35.03;101993.97;5352448;26;20448;-85
2024/04/13 11:31:31;;;;;;;5.07;2.20;;;;;;;23.33;35.81;101981.94;5351368;26;20430;-84
2024/04/13 11:33:58;;;;;;;4.25;2.25;;;;;;;23.37;35.88;101994.47;5391367;26;20012;-84
2024/04/13 11:36:28;;;;;;;4.18;2.20;;;;;;;23.39;35.73;101981.19;5364602;26;20012;-84
2024/04/13 11:38:55;;;;;;;5.72;2.30;;;;;;;23.44;35.86;101982.53;5358917;26;20008;-84